createdAt,value
2023-04-22T01:27:29.607Z,8.60
2023-04-22T01:31:32.076Z,8.50
2023-04-22T01:35:34.281Z,8.50
2023-04-22T01:39:36.802Z,8.50
2023-04-22T01:43:42.339Z,8.60
2023-04-22T01:47:44.512Z,8.50
2023-04-22T01:51:46.776Z,8.40
2023-04-22T01:55:48.956Z,8.20
2023-04-22T01:59:53.605Z,8.00
2023-04-22T02:03:55.756Z,8.00
2023-04-22T02:07:57.932Z,8.10
2023-04-22T02:12:00.078Z,8.10
2023-04-22T02:16:05.785Z,8.00
2023-04-22T02:20:09.258Z,8.00
2023-04-22T02:24:11.432Z,8.10
2023-04-22T02:28:13.477Z,8.10
2023-04-22T02:32:18.146Z,8.20
2023-04-22T02:36:20.231Z,8.10
2023-04-22T02:40:22.524Z,8.10
2023-04-22T02:44:24.665Z,8.00
2023-04-22T02:48:29.365Z,8.00
2023-04-22T02:52:31.449Z,7.90
2023-04-22T02:56:33.546Z,7.80
2023-04-22T03:00:35.986Z,7.90
2023-04-22T03:04:40.872Z,7.90
2023-04-22T03:08:42.909Z,7.90
2023-04-22T03:12:45.019Z,7.90
2023-04-22T03:16:47.169Z,7.80
2023-04-22T03:20:51.845Z,7.80
2023-04-22T03:24:53.972Z,7.70
2023-04-22T03:28:56.060Z,7.70
2023-04-22T03:32:58.407Z,7.60
2023-04-22T03:37:03.145Z,7.40
2023-04-22T03:41:05.220Z,7.20
2023-04-22T03:45:08.123Z,7.10
2023-04-22T03:49:10.217Z,7.00
2023-04-22T03:53:14.864Z,6.90
2023-04-22T03:57:16.938Z,6.90
2023-04-22T04:01:19.048Z,6.90
2023-04-22T04:05:21.346Z,6.80
2023-04-22T04:09:26.099Z,6.90
2023-04-22T04:13:28.198Z,7.10
2023-04-22T04:17:30.294Z,7.20
2023-04-22T04:21:32.347Z,7.20
2023-04-22T04:25:37.013Z,7.30
2023-04-22T04:29:39.503Z,7.40
2023-04-22T04:33:41.781Z,7.40
2023-04-22T04:37:44.140Z,7.40
2023-04-22T04:41:48.820Z,7.50
2023-04-22T04:45:50.875Z,7.60
2023-04-22T04:49:52.948Z,7.70
2023-04-22T04:53:55.062Z,7.80
2023-04-22T04:57:59.800Z,7.80
2023-04-22T05:02:01.905Z,7.80
2023-04-22T05:06:05.081Z,7.90
2023-04-22T05:10:08.459Z,8.10
2023-04-22T05:14:13.093Z,8.20
2023-04-22T05:18:15.167Z,8.30
2023-04-22T05:22:17.441Z,8.90
2023-04-22T05:26:19.553Z,10.60
2023-04-22T05:30:24.310Z,12.30
2023-04-22T05:34:26.433Z,13.80
2023-04-22T05:38:28.630Z,14.80
2023-04-22T05:42:30.716Z,15.70
2023-04-22T05:46:35.639Z,16.70
2023-04-22T05:50:37.756Z,17.60
2023-04-22T05:54:39.861Z,17.90
2023-04-22T05:58:42.002Z,16.60
2023-04-22T06:02:46.893Z,15.30
2023-04-22T06:06:49.135Z,14.40
2023-04-22T06:10:51.229Z,13.50
2023-04-22T06:14:53.264Z,13.00
2023-04-22T06:18:57.947Z,12.60
2023-04-22T06:23:00.033Z,12.50
2023-04-22T06:27:02.105Z,12.60
2023-04-22T06:31:04.297Z,12.70
2023-04-22T06:35:09.855Z,12.90
2023-04-22T06:39:11.978Z,13.10
2023-04-22T06:43:14.069Z,13.30
2023-04-22T06:47:16.171Z,13.70
2023-04-22T06:51:20.976Z,13.80
2023-04-22T06:55:23.015Z,14.00
2023-04-22T06:59:25.097Z,14.20
2023-04-22T07:03:27.334Z,14.50
2023-04-22T07:07:32.206Z,14.60
2023-04-22T07:11:34.316Z,14.80
2023-04-22T07:15:36.463Z,15.00
2023-04-22T07:19:39.115Z,15.20
2023-04-22T07:23:44.110Z,15.30
2023-04-22T07:27:46.188Z,15.40
2023-04-22T07:31:48.331Z,15.50
2023-04-22T07:35:50.605Z,15.70
2023-04-22T07:39:55.256Z,16.10
2023-04-22T07:43:57.338Z,16.40
2023-04-22T07:47:59.635Z,16.80
2023-04-22T07:52:01.744Z,16.90
2023-04-22T07:56:07.008Z,16.80
2023-04-22T08:00:10.787Z,17.00
2023-04-22T08:04:13.027Z,17.10
2023-04-22T08:08:15.484Z,17.30
2023-04-22T08:12:20.205Z,17.50
2023-04-22T08:16:22.441Z,17.60
2023-04-22T08:20:24.727Z,17.90
2023-04-22T08:24:26.818Z,17.80
2023-04-22T08:28:31.601Z,17.80
2023-04-22T08:32:33.863Z,18.20
2023-04-22T08:36:35.971Z,18.40
2023-04-22T08:40:41.369Z,18.70
2023-04-22T08:44:46.515Z,18.90
2023-04-22T08:48:50.022Z,18.90
2023-04-22T08:52:52.414Z,19.30
2023-04-22T08:56:55.317Z,19.50
2023-04-22T09:01:01.282Z,19.70
2023-04-22T09:05:05.680Z,19.70
2023-04-22T09:09:07.943Z,19.50
2023-04-22T09:13:10.546Z,19.60
2023-04-22T09:17:16.358Z,19.70
2023-04-22T09:21:18.482Z,20.00
2023-04-22T09:25:22.063Z,20.20
2023-04-22T09:29:30.202Z,20.20
2023-04-22T09:33:39.155Z,20.50
2023-04-22T09:37:49.225Z,20.50
2023-04-22T09:41:54.783Z,20.50
2023-04-22T09:46:00.040Z,20.50
2023-04-22T09:50:08.137Z,20.90
2023-04-22T09:54:11.190Z,21.00
2023-04-22T09:58:15.064Z,20.80
2023-04-22T10:02:17.182Z,20.80
2023-04-22T10:06:21.906Z,20.90
2023-04-22T10:10:24.640Z,21.00
2023-04-22T10:14:27.379Z,21.10
2023-04-22T10:18:30.915Z,20.90
2023-04-22T10:22:35.868Z,21.30
2023-04-22T10:26:43.655Z,21.30
2023-04-22T10:30:46.052Z,21.70
2023-04-22T10:34:49.647Z,21.80
2023-04-22T10:39:18.713Z,22.00
2023-04-22T10:43:20.792Z,22.00
2023-04-22T10:47:27.901Z,21.80
2023-04-22T10:51:39.634Z,22.00
2023-04-22T10:55:54.026Z,21.70
2023-04-22T10:59:58.911Z,22.00
2023-04-22T11:04:22.495Z,22.00
2023-04-22T11:08:28.824Z,22.20
2023-04-22T11:12:45.877Z,22.40
2023-04-22T11:16:48.303Z,22.50
2023-04-22T11:20:51.946Z,22.30
2023-04-22T11:24:54.764Z,22.60
2023-04-22T11:29:00.008Z,22.80
2023-04-22T11:33:02.229Z,22.80
2023-04-22T11:37:04.480Z,22.50
2023-04-22T11:41:06.554Z,22.60
2023-04-22T11:45:11.918Z,22.80
2023-04-22T11:49:15.165Z,23.00
2023-04-22T11:53:18.722Z,23.30
2023-04-22T11:57:20.968Z,23.30
2023-04-22T12:01:25.618Z,23.20
2023-04-22T12:05:38.414Z,23.20
2023-04-22T12:09:40.864Z,23.20
2023-04-22T12:13:44.774Z,23.20
2023-04-22T12:17:50.667Z,23.40
2023-04-22T12:21:55.728Z,23.70
2023-04-22T12:25:57.963Z,23.60
2023-04-22T12:30:00.151Z,23.40
2023-04-22T12:34:04.872Z,23.50
2023-04-22T12:38:06.985Z,23.50
2023-04-22T12:42:09.070Z,23.20
2023-04-22T12:46:11.275Z,22.80
2023-04-22T12:50:16.135Z,22.80
2023-04-22T12:54:19.875Z,23.20
2023-04-22T12:58:21.981Z,23.30
2023-04-22T13:02:24.108Z,23.20
2023-04-22T13:06:28.837Z,23.20
2023-04-22T13:10:31.139Z,23.00
2023-04-22T13:14:33.225Z,22.90
2023-04-22T13:18:35.285Z,22.60
2023-04-22T13:22:40.397Z,22.90
2023-04-22T13:26:42.561Z,22.90
2023-04-22T13:30:44.717Z,23.10
2023-04-22T13:34:46.755Z,23.00
2023-04-22T13:38:51.414Z,22.80
2023-04-22T13:42:53.512Z,22.90
2023-04-22T13:46:55.570Z,23.10
2023-04-22T13:50:57.662Z,23.00
2023-04-22T13:55:03.354Z,23.10
2023-04-22T13:59:05.721Z,23.20
2023-04-22T14:03:07.957Z,23.30
2023-04-22T14:07:10.329Z,23.10
2023-04-22T14:11:15.158Z,23.00
2023-04-22T14:15:17.451Z,23.00
2023-04-22T14:19:20.796Z,22.70
2023-04-22T14:23:22.889Z,22.50
2023-04-22T14:27:27.776Z,22.60
2023-04-22T14:31:30.097Z,22.90
2023-04-22T14:35:32.504Z,22.90
2023-04-22T14:39:34.584Z,23.00
2023-04-22T14:43:39.374Z,23.00
2023-04-22T14:47:41.621Z,22.80
2023-04-22T14:51:43.777Z,22.50
2023-04-22T14:55:46.576Z,22.30
2023-04-22T14:59:51.367Z,22.00
2023-04-22T15:03:53.637Z,21.50
2023-04-22T15:07:55.847Z,21.80
2023-04-22T15:11:57.946Z,22.20
2023-04-22T15:16:02.735Z,22.30
2023-04-22T15:20:08.011Z,22.40
2023-04-22T15:24:11.291Z,22.20
2023-04-22T15:28:13.904Z,21.80
2023-04-22T15:32:18.650Z,21.70
2023-04-22T15:36:20.801Z,21.80
2023-04-22T15:40:22.867Z,21.80
2023-04-22T15:44:24.935Z,21.80
2023-04-22T15:48:29.678Z,21.70
2023-04-22T15:52:34.241Z,21.70
2023-04-22T15:56:36.612Z,21.50
2023-04-22T16:00:38.760Z,21.40
